sensor_id;sensor_type;location;lat;lon;timestamp;temperature;humidity
39067;DHT22;24821;51.988;6.020;2024-01-25T00:01:21;8.70;99.90
39067;DHT22;24821;51.988;6.020;2024-01-25T00:03:47;8.70;99.90
39067;DHT22;24821;51.988;6.020;2024-01-25T00:06:12;8.70;99.90
39067;DHT22;24821;51.988;6.020;2024-01-25T00:08:37;8.60;99.90
39067;DHT22;24821;51.988;6.020;2024-01-25T00:11:03;8.50;99.90
39067;DHT22;24821;51.988;6.020;2024-01-25T00:13:29;8.50;99.90
39067;DHT22;24821;51.988;6.020;2024-01-25T00:15:55;8.40;99.90
39067;DHT22;24821;51.988;6.020;2024-01-25T00:18:20;8.30;99.90
39067;DHT22;24821;51.988;6.020;2024-01-25T00:20:46;8.30;99.90
39067;DHT22;24821;51.988;6.020;2024-01-25T00:23:11;8.20;99.90
39067;DHT22;24821;51.988;6.020;2024-01-25T00:25:37;8.20;99.90
39067;DHT22;24821;51.988;6.020;2024-01-25T00:28:02;8.20;99.90
39067;DHT22;24821;51.988;6.020;2024-01-25T00:30:28;8.10;99.90
39067;DHT22;24821;51.988;6.020;2024-01-25T00:32:54;8.10;99.90
39067;DHT22;24821;51.988;6.020;2024-01-25T00:35:19;8.00;99.90
39067;DHT22;24821;51.988;6.020;2024-01-25T00:37:45;8.00;99.90
39067;DHT22;24821;51.988;6.020;2024-01-25T00:40:11;7.90;99.90
39067;DHT22;24821;51.988;6.020;2024-01-25T00:42:42;7.80;99.90
39067;DHT22;24821;51.988;6.020;2024-01-25T00:45:07;7.80;99.90
39067;DHT22;24821;51.988;6.020;2024-01-25T00:47:33;7.70;99.90
39067;DHT22;24821;51.988;6.020;2024-01-25T00:49:59;7.70;99.90
39067;DHT22;24821;51.988;6.020;2024-01-25T00:52:24;7.70;99.90
39067;DHT22;24821;51.988;6.020;2024-01-25T00:54:50;7.70;99.90
39067;DHT22;24821;51.988;6.020;2024-01-25T00:57:16;7.60;99.90
39067;DHT22;24821;51.988;6.020;2024-01-25T00:59:41;7.60;99.90
39067;DHT22;24821;51.988;6.020;2024-01-25T01:02:08;7.60;99.90
39067;DHT22;24821;51.988;6.020;2024-01-25T01:04:35;7.50;99.90
39067;DHT22;24821;51.988;6.020;2024-01-25T01:07:01;7.50;99.90
39067;DHT22;24821;51.988;6.020;2024-01-25T01:09:26;7.50;99.90
39067;DHT22;24821;51.988;6.020;2024-01-25T01:11:52;7.40;99.90
39067;DHT22;24821;51.988;6.020;2024-01-25T01:14:18;7.40;99.90
39067;DHT22;24821;51.988;6.020;2024-01-25T01:16:43;7.40;99.90
39067;DHT22;24821;51.988;6.020;2024-01-25T01:19:09;7.40;99.90
39067;DHT22;24821;51.988;6.020;2024-01-25T01:21:34;7.30;99.90
39067;DHT22;24821;51.988;6.020;2024-01-25T01:24:01;7.30;99.90
39067;DHT22;24821;51.988;6.020;2024-01-25T01:26:26;7.30;99.90
39067;DHT22;24821;51.988;6.020;2024-01-25T01:28:52;7.30;99.90
39067;DHT22;24821;51.988;6.020;2024-01-25T01:31:17;7.20;99.90
39067;DHT22;24821;51.988;6.020;2024-01-25T01:33:42;7.20;99.90
39067;DHT22;24821;51.988;6.020;2024-01-25T01:36:08;7.20;99.90
39067;DHT22;24821;51.988;6.020;2024-01-25T01:38:33;7.20;99.90
39067;DHT22;24821;51.988;6.020;2024-01-25T01:40:59;7.20;99.90
39067;DHT22;24821;51.988;6.020;2024-01-25T01:43:24;7.10;99.90
39067;DHT22;24821;51.988;6.020;2024-01-25T01:45:51;7.10;99.90
39067;DHT22;24821;51.988;6.020;2024-01-25T01:48:17;7.00;99.90
39067;DHT22;24821;51.988;6.020;2024-01-25T01:50:42;7.00;99.90
39067;DHT22;24821;51.988;6.020;2024-01-25T01:53:08;7.00;99.90
39067;DHT22;24821;51.988;6.020;2024-01-25T01:55:33;6.90;99.90
39067;DHT22;24821;51.988;6.020;2024-01-25T01:57:59;6.90;99.90
39067;DHT22;24821;51.988;6.020;2024-01-25T02:00:25;7.00;99.90
39067;DHT22;24821;51.988;6.020;2024-01-25T02:02:50;6.90;99.90
39067;DHT22;24821;51.988;6.020;2024-01-25T02:05:16;6.90;99.90
39067;DHT22;24821;51.988;6.020;2024-01-25T02:07:41;6.90;99.90
39067;DHT22;24821;51.988;6.020;2024-01-25T02:10:07;6.90;99.90
39067;DHT22;24821;51.988;6.020;2024-01-25T02:12:33;6.80;99.90
39067;DHT22;24821;51.988;6.020;2024-01-25T02:14:59;6.80;99.90
39067;DHT22;24821;51.988;6.020;2024-01-25T02:17:24;6.70;99.90
39067;DHT22;24821;51.988;6.020;2024-01-25T02:19:50;6.70;99.90
39067;DHT22;24821;51.988;6.020;2024-01-25T02:22:16;6.70;99.90
39067;DHT22;24821;51.988;6.020;2024-01-25T02:24:42;6.70;99.90
39067;DHT22;24821;51.988;6.020;2024-01-25T02:27:07;6.60;99.90
39067;DHT22;24821;51.988;6.020;2024-01-25T02:29:32;6.60;99.90
39067;DHT22;24821;51.988;6.020;2024-01-25T02:31:58;6.60;99.90
39067;DHT22;24821;51.988;6.020;2024-01-25T02:34:23;6.60;99.90
39067;DHT22;24821;51.988;6.020;2024-01-25T02:36:49;6.60;99.90
39067;DHT22;24821;51.988;6.020;2024-01-25T02:39:14;6.50;99.90
39067;DHT22;24821;51.988;6.020;2024-01-25T02:41:40;6.50;99.90
39067;DHT22;24821;51.988;6.020;2024-01-25T02:44:05;6.50;99.90
39067;DHT22;24821;51.988;6.020;2024-01-25T02:46:31;6.40;99.90
39067;DHT22;24821;51.988;6.020;2024-01-25T02:48:56;6.40;99.90
39067;DHT22;24821;51.988;6.020;2024-01-25T02:51:22;6.40;99.90
39067;DHT22;24821;51.988;6.020;2024-01-25T02:53:47;6.40;99.90
39067;DHT22;24821;51.988;6.020;2024-01-25T02:56:13;6.30;99.90
39067;DHT22;24821;51.988;6.020;2024-01-25T02:58:38;6.30;99.90
39067;DHT22;24821;51.988;6.020;2024-01-25T03:01:04;6.30;99.90
39067;DHT22;24821;51.988;6.020;2024-01-25T03:03:29;6.30;99.90
39067;DHT22;24821;51.988;6.020;2024-01-25T03:05:54;6.30;99.90
39067;DHT22;24821;51.988;6.020;2024-01-25T03:08:20;6.30;99.90
39067;DHT22;24821;51.988;6.020;2024-01-25T03:10:46;6.30;99.90
39067;DHT22;24821;51.988;6.020;2024-01-25T03:13:15;6.30;99.90
39067;DHT22;24821;51.988;6.020;2024-01-25T03:15:41;6.30;99.90
39067;DHT22;24821;51.988;6.020;2024-01-25T03:18:07;6.30;99.90
39067;DHT22;24821;51.988;6.020;2024-01-25T03:20:32;6.30;99.90
39067;DHT22;24821;51.988;6.020;2024-01-25T03:22:58;6.20;99.90
39067;DHT22;24821;51.988;6.020;2024-01-25T03:25:23;6.30;99.90
39067;DHT22;24821;51.988;6.020;2024-01-25T03:27:49;6.20;99.90
39067;DHT22;24821;51.988;6.020;2024-01-25T03:30:14;6.20;99.90
39067;DHT22;24821;51.988;6.020;2024-01-25T03:32:40;6.20;99.90
39067;DHT22;24821;51.988;6.020;2024-01-25T03:35:05;6.20;99.90
39067;DHT22;24821;51.988;6.020;2024-01-25T03:37:31;6.20;99.90
39067;DHT22;24821;51.988;6.020;2024-01-25T03:39:56;6.20;99.90
39067;DHT22;24821;51.988;6.020;2024-01-25T03:42:22;6.20;99.90
39067;DHT22;24821;51.988;6.020;2024-01-25T03:44:47;6.20;99.90
39067;DHT22;24821;51.988;6.020;2024-01-25T03:47:13;6.20;99.90
39067;DHT22;24821;51.988;6.020;2024-01-25T03:49:38;6.20;99.90
39067;DHT22;24821;51.988;6.020;2024-01-25T03:52:04;6.10;99.90
39067;DHT22;24821;51.988;6.020;2024-01-25T03:54:30;6.10;99.90
39067;DHT22;24821;51.988;6.020;2024-01-25T03:56:55;6.10;99.90
39067;DHT22;24821;51.988;6.020;2024-01-25T03:59:21;6.10;99.90
39067;DHT22;24821;51.988;6.020;2024-01-25T04:01:46;6.10;99.90
39067;DHT22;24821;51.988;6.020;2024-01-25T04:04:13;6.00;99.90
39067;DHT22;24821;51.988;6.020;2024-01-25T04:06:40;6.00;99.90
39067;DHT22;24821;51.988;6.020;2024-01-25T04:09:06;6.00;99.90
39067;DHT22;24821;51.988;6.020;2024-01-25T04:11:32;6.00;99.90
39067;DHT22;24821;51.988;6.020;2024-01-25T04:13:57;6.00;99.90
39067;DHT22;24821;51.988;6.020;2024-01-25T04:16:23;5.90;99.90
39067;DHT22;24821;51.988;6.020;2024-01-25T04:18:49;5.90;99.90
39067;DHT22;24821;51.988;6.020;2024-01-25T04:21:14;5.90;99.90
39067;DHT22;24821;51.988;6.020;2024-01-25T04:23:39;5.90;99.90
39067;DHT22;24821;51.988;6.020;2024-01-25T04:26:05;5.90;99.90
39067;DHT22;24821;51.988;6.020;2024-01-25T04:28:30;5.80;99.90
39067;DHT22;24821;51.988;6.020;2024-01-25T04:30:56;5.80;99.90
39067;DHT22;24821;51.988;6.020;2024-01-25T04:33:21;5.80;99.90
39067;DHT22;24821;51.988;6.020;2024-01-25T04:35:47;5.70;99.90
39067;DHT22;24821;51.988;6.020;2024-01-25T04:38:12;5.70;99.90
39067;DHT22;24821;51.988;6.020;2024-01-25T04:40:38;5.70;99.90
39067;DHT22;24821;51.988;6.020;2024-01-25T04:43:03;5.70;99.90
39067;DHT22;24821;51.988;6.020;2024-01-25T04:45:29;5.70;99.90
39067;DHT22;24821;51.988;6.020;2024-01-25T04:47:54;5.70;99.90
39067;DHT22;24821;51.988;6.020;2024-01-25T04:50:20;5.60;99.90
39067;DHT22;24821;51.988;6.020;2024-01-25T04:52:45;5.70;99.90
39067;DHT22;24821;51.988;6.020;2024-01-25T04:55:10;5.60;99.90
39067;DHT22;24821;51.988;6.020;2024-01-25T04:57:36;5.60;99.90
39067;DHT22;24821;51.988;6.020;2024-01-25T05:00:01;5.60;99.90
39067;DHT22;24821;51.988;6.020;2024-01-25T05:02:27;5.60;99.90
39067;DHT22;24821;51.988;6.020;2024-01-25T05:04:53;5.50;99.90
39067;DHT22;24821;51.988;6.020;2024-01-25T05:07:18;5.50;99.90
39067;DHT22;24821;51.988;6.020;2024-01-25T05:09:44;5.50;99.90
39067;DHT22;24821;51.988;6.020;2024-01-25T05:12:09;5.50;99.90
39067;DHT22;24821;51.988;6.020;2024-01-25T05:14:34;5.50;99.90
39067;DHT22;24821;51.988;6.020;2024-01-25T05:17:00;5.50;99.90
39067;DHT22;24821;51.988;6.020;2024-01-25T05:19:25;5.50;99.90
39067;DHT22;24821;51.988;6.020;2024-01-25T05:21:51;5.50;99.90
39067;DHT22;24821;51.988;6.020;2024-01-25T05:24:17;5.40;99.90
39067;DHT22;24821;51.988;6.020;2024-01-25T05:26:42;5.40;99.90
39067;DHT22;24821;51.988;6.020;2024-01-25T05:29:07;5.40;99.90
39067;DHT22;24821;51.988;6.020;2024-01-25T05:31:33;5.40;99.90
39067;DHT22;24821;51.988;6.020;2024-01-25T05:33:58;5.30;99.90
39067;DHT22;24821;51.988;6.020;2024-01-25T05:36:24;5.30;99.90
39067;DHT22;24821;51.988;6.020;2024-01-25T05:38:49;5.30;99.90
39067;DHT22;24821;51.988;6.020;2024-01-25T05:41:15;5.30;99.90
39067;DHT22;24821;51.988;6.020;2024-01-25T05:43:40;5.40;99.90
39067;DHT22;24821;51.988;6.020;2024-01-25T05:46:06;5.40;99.90
39067;DHT22;24821;51.988;6.020;2024-01-25T05:48:31;5.30;99.90
39067;DHT22;24821;51.988;6.020;2024-01-25T05:50:57;5.40;99.90
39067;DHT22;24821;51.988;6.020;2024-01-25T05:53:22;5.30;99.90
39067;DHT22;24821;51.988;6.020;2024-01-25T05:55:48;5.30;99.90
39067;DHT22;24821;51.988;6.020;2024-01-25T05:58:13;5.30;99.90
39067;DHT22;24821;51.988;6.020;2024-01-25T06:00:39;5.40;99.90
39067;DHT22;24821;51.988;6.020;2024-01-25T06:03:04;5.40;99.90
39067;DHT22;24821;51.988;6.020;2024-01-25T06:05:30;5.30;99.90
39067;DHT22;24821;51.988;6.020;2024-01-25T06:07:55;5.30;99.90
39067;DHT22;24821;51.988;6.020;2024-01-25T06:10:21;5.30;99.90
39067;DHT22;24821;51.988;6.020;2024-01-25T06:12:48;5.30;99.90
39067;DHT22;24821;51.988;6.020;2024-01-25T06:15:13;5.30;99.90
39067;DHT22;24821;51.988;6.020;2024-01-25T06:17:39;5.30;99.90
39067;DHT22;24821;51.988;6.020;2024-01-25T06:20:04;5.30;99.90
39067;DHT22;24821;51.988;6.020;2024-01-25T06:22:30;5.30;99.90
39067;DHT22;24821;51.988;6.020;2024-01-25T06:24:55;5.20;99.90
39067;DHT22;24821;51.988;6.020;2024-01-25T06:27:21;5.20;99.90
39067;DHT22;24821;51.988;6.020;2024-01-25T06:29:46;5.20;99.90
39067;DHT22;24821;51.988;6.020;2024-01-25T06:32:12;5.20;99.90
39067;DHT22;24821;51.988;6.020;2024-01-25T06:34:37;5.20;99.90
39067;DHT22;24821;51.988;6.020;2024-01-25T06:37:03;5.20;99.90
39067;DHT22;24821;51.988;6.020;2024-01-25T06:39:28;5.20;99.90
39067;DHT22;24821;51.988;6.020;2024-01-25T06:41:54;5.10;99.90
39067;DHT22;24821;51.988;6.020;2024-01-25T06:44:19;5.10;99.90
39067;DHT22;24821;51.988;6.020;2024-01-25T06:46:45;5.10;99.90
39067;DHT22;24821;51.988;6.020;2024-01-25T06:49:11;5.10;99.90
39067;DHT22;24821;51.988;6.020;2024-01-25T06:51:36;5.10;99.90
39067;DHT22;24821;51.988;6.020;2024-01-25T06:54:02;5.00;99.90
39067;DHT22;24821;51.988;6.020;2024-01-25T06:56:27;5.00;99.90
39067;DHT22;24821;51.988;6.020;2024-01-25T06:58:53;5.00;99.90
39067;DHT22;24821;51.988;6.020;2024-01-25T07:01:21;5.00;99.90
39067;DHT22;24821;51.988;6.020;2024-01-25T07:03:47;5.00;99.90
39067;DHT22;24821;51.988;6.020;2024-01-25T07:06:13;5.00;99.90
39067;DHT22;24821;51.988;6.020;2024-01-25T07:08:38;4.90;99.90
39067;DHT22;24821;51.988;6.020;2024-01-25T07:11:04;4.90;99.90
39067;DHT22;24821;51.988;6.020;2024-01-25T07:13:29;4.90;99.90
39067;DHT22;24821;51.988;6.020;2024-01-25T07:15:55;5.00;99.90
39067;DHT22;24821;51.988;6.020;2024-01-25T07:18:20;5.00;99.90
39067;DHT22;24821;51.988;6.020;2024-01-25T07:20:46;5.00;99.90
39067;DHT22;24821;51.988;6.020;2024-01-25T07:23:11;5.00;99.90
39067;DHT22;24821;51.988;6.020;2024-01-25T07:25:37;5.00;99.90
39067;DHT22;24821;51.988;6.020;2024-01-25T07:28:02;5.00;99.90
39067;DHT22;24821;51.988;6.020;2024-01-25T07:30:28;5.00;99.90
39067;DHT22;24821;51.988;6.020;2024-01-25T07:32:53;5.00;99.90
39067;DHT22;24821;51.988;6.020;2024-01-25T07:35:19;5.00;99.90
39067;DHT22;24821;51.988;6.020;2024-01-25T07:37:44;4.90;99.90
39067;DHT22;24821;51.988;6.020;2024-01-25T07:40:10;5.00;99.90
39067;DHT22;24821;51.988;6.020;2024-01-25T07:42:35;5.00;99.90
39067;DHT22;24821;51.988;6.020;2024-01-25T07:45:01;4.90;99.90
39067;DHT22;24821;51.988;6.020;2024-01-25T07:47:26;5.00;99.90
39067;DHT22;24821;51.988;6.020;2024-01-25T07:49:52;4.90;99.90
39067;DHT22;24821;51.988;6.020;2024-01-25T07:52:17;4.90;99.90
39067;DHT22;24821;51.988;6.020;2024-01-25T07:54:43;4.90;99.90
39067;DHT22;24821;51.988;6.020;2024-01-25T07:57:09;5.00;99.90
39067;DHT22;24821;51.988;6.020;2024-01-25T07:59:35;5.00;99.90
39067;DHT22;24821;51.988;6.020;2024-01-25T08:02:00;5.00;99.90
39067;DHT22;24821;51.988;6.020;2024-01-25T08:04:26;5.00;99.90
39067;DHT22;24821;51.988;6.020;2024-01-25T08:06:51;5.00;99.90
39067;DHT22;24821;51.988;6.020;2024-01-25T08:09:17;5.10;99.90
39067;DHT22;24821;51.988;6.020;2024-01-25T08:11:42;5.10;99.90
39067;DHT22;24821;51.988;6.020;2024-01-25T08:14:08;5.10;99.90
39067;DHT22;24821;51.988;6.020;2024-01-25T08:16:33;5.20;99.90
39067;DHT22;24821;51.988;6.020;2024-01-25T08:19:00;5.20;99.90
39067;DHT22;24821;51.988;6.020;2024-01-25T08:21:26;5.20;99.90
39067;DHT22;24821;51.988;6.020;2024-01-25T08:23:51;5.30;99.90
39067;DHT22;24821;51.988;6.020;2024-01-25T08:26:17;5.20;99.90
39067;DHT22;24821;51.988;6.020;2024-01-25T08:28:42;5.30;99.90
39067;DHT22;24821;51.988;6.020;2024-01-25T08:31:11;5.40;99.90
39067;DHT22;24821;51.988;6.020;2024-01-25T08:33:37;5.30;99.90
39067;DHT22;24821;51.988;6.020;2024-01-25T08:36:03;5.30;99.90
39067;DHT22;24821;51.988;6.020;2024-01-25T08:38:29;5.30;99.90
39067;DHT22;24821;51.988;6.020;2024-01-25T08:40:54;5.30;99.90
39067;DHT22;24821;51.988;6.020;2024-01-25T08:43:20;5.40;99.90
39067;DHT22;24821;51.988;6.020;2024-01-25T08:45:45;5.40;99.90
39067;DHT22;24821;51.988;6.020;2024-01-25T08:48:11;5.50;99.90
39067;DHT22;24821;51.988;6.020;2024-01-25T08:50:38;5.50;99.90
39067;DHT22;24821;51.988;6.020;2024-01-25T08:53:04;5.60;99.90
39067;DHT22;24821;51.988;6.020;2024-01-25T08:55:30;5.60;99.90
39067;DHT22;24821;51.988;6.020;2024-01-25T08:57:56;5.60;99.90
39067;DHT22;24821;51.988;6.020;2024-01-25T09:00:21;5.60;99.90
39067;DHT22;24821;51.988;6.020;2024-01-25T09:02:47;5.60;99.90
39067;DHT22;24821;51.988;6.020;2024-01-25T09:05:12;5.70;99.90
39067;DHT22;24821;51.988;6.020;2024-01-25T09:07:38;5.80;99.90
39067;DHT22;24821;51.988;6.020;2024-01-25T09:10:04;5.80;99.90
39067;DHT22;24821;51.988;6.020;2024-01-25T09:12:30;5.90;99.90
39067;DHT22;24821;51.988;6.020;2024-01-25T09:14:55;5.90;99.90
39067;DHT22;24821;51.988;6.020;2024-01-25T09:17:20;6.00;99.90
39067;DHT22;24821;51.988;6.020;2024-01-25T09:19:49;6.00;99.90
39067;DHT22;24821;51.988;6.020;2024-01-25T09:22:17;6.10;99.90
39067;DHT22;24821;51.988;6.020;2024-01-25T09:24:45;6.10;99.90
39067;DHT22;24821;51.988;6.020;2024-01-25T09:27:11;6.20;99.90
39067;DHT22;24821;51.988;6.020;2024-01-25T09:29:37;6.20;99.90
39067;DHT22;24821;51.988;6.020;2024-01-25T09:32:03;6.20;99.90
39067;DHT22;24821;51.988;6.020;2024-01-25T09:34:29;6.30;99.90
39067;DHT22;24821;51.988;6.020;2024-01-25T09:36:55;6.30;99.90
39067;DHT22;24821;51.988;6.020;2024-01-25T09:39:20;6.40;99.90
39067;DHT22;24821;51.988;6.020;2024-01-25T09:41:46;6.50;99.90
39067;DHT22;24821;51.988;6.020;2024-01-25T09:44:11;6.50;99.90
39067;DHT22;24821;51.988;6.020;2024-01-25T09:46:37;6.50;99.90
39067;DHT22;24821;51.988;6.020;2024-01-25T09:49:03;6.60;99.90
39067;DHT22;24821;51.988;6.020;2024-01-25T09:51:30;6.70;99.90
39067;DHT22;24821;51.988;6.020;2024-01-25T09:54:00;6.70;99.90
39067;DHT22;24821;51.988;6.020;2024-01-25T09:56:27;6.80;99.90
39067;DHT22;24821;51.988;6.020;2024-01-25T09:58:54;6.90;99.90
39067;DHT22;24821;51.988;6.020;2024-01-25T10:01:20;6.90;99.90
39067;DHT22;24821;51.988;6.020;2024-01-25T10:03:46;6.90;99.90
39067;DHT22;24821;51.988;6.020;2024-01-25T10:06:12;7.00;99.90
39067;DHT22;24821;51.988;6.020;2024-01-25T10:08:37;7.00;99.90
39067;DHT22;24821;51.988;6.020;2024-01-25T10:11:03;7.10;99.90
39067;DHT22;24821;51.988;6.020;2024-01-25T10:13:29;7.10;99.90
39067;DHT22;24821;51.988;6.020;2024-01-25T10:15:54;7.20;99.90
39067;DHT22;24821;51.988;6.020;2024-01-25T10:18:22;7.20;99.90
39067;DHT22;24821;51.988;6.020;2024-01-25T10:20:47;7.20;99.90
39067;DHT22;24821;51.988;6.020;2024-01-25T10:23:15;7.20;99.90
39067;DHT22;24821;51.988;6.020;2024-01-25T10:25:41;7.20;99.90
39067;DHT22;24821;51.988;6.020;2024-01-25T10:28:07;7.30;99.90
39067;DHT22;24821;51.988;6.020;2024-01-25T10:30:33;7.30;99.90
39067;DHT22;24821;51.988;6.020;2024-01-25T10:32:59;7.40;99.90
39067;DHT22;24821;51.988;6.020;2024-01-25T10:35:27;7.40;99.90
39067;DHT22;24821;51.988;6.020;2024-01-25T10:37:54;7.50;99.90
39067;DHT22;24821;51.988;6.020;2024-01-25T10:40:20;7.50;99.90
39067;DHT22;24821;51.988;6.020;2024-01-25T10:42:52;7.60;99.90
39067;DHT22;24821;51.988;6.020;2024-01-25T10:45:19;7.70;99.90
39067;DHT22;24821;51.988;6.020;2024-01-25T10:47:49;7.70;99.90
39067;DHT22;24821;51.988;6.020;2024-01-25T10:50:16;7.80;99.90
39067;DHT22;24821;51.988;6.020;2024-01-25T10:52:43;7.80;99.90
39067;DHT22;24821;51.988;6.020;2024-01-25T10:55:15;7.90;99.90
39067;DHT22;24821;51.988;6.020;2024-01-25T10:57:42;7.90;99.90
39067;DHT22;24821;51.988;6.020;2024-01-25T11:00:12;7.90;99.90
39067;DHT22;24821;51.988;6.020;2024-01-25T11:02:38;8.00;99.90
39067;DHT22;24821;51.988;6.020;2024-01-25T11:05:14;8.00;99.90
39067;DHT22;24821;51.988;6.020;2024-01-25T11:07:44;8.20;99.90
39067;DHT22;24821;51.988;6.020;2024-01-25T11:10:11;8.20;99.90
39067;DHT22;24821;51.988;6.020;2024-01-25T11:12:46;8.20;99.90
39067;DHT22;24821;51.988;6.020;2024-01-25T11:15:16;8.30;99.90
39067;DHT22;24821;51.988;6.020;2024-01-25T11:17:42;8.30;99.90
39067;DHT22;24821;51.988;6.020;2024-01-25T11:20:15;8.30;99.90
39067;DHT22;24821;51.988;6.020;2024-01-25T11:22:44;8.30;99.90
39067;DHT22;24821;51.988;6.020;2024-01-25T11:25:13;8.40;99.90
39067;DHT22;24821;51.988;6.020;2024-01-25T11:27:42;8.40;99.90
39067;DHT22;24821;51.988;6.020;2024-01-25T11:30:08;8.50;99.90
39067;DHT22;24821;51.988;6.020;2024-01-25T11:32:33;8.50;99.90
39067;DHT22;24821;51.988;6.020;2024-01-25T11:34:59;8.50;99.90
39067;DHT22;24821;51.988;6.020;2024-01-25T11:37:26;8.50;99.90
39067;DHT22;24821;51.988;6.020;2024-01-25T11:39:51;8.50;99.90
39067;DHT22;24821;51.988;6.020;2024-01-25T11:42:17;8.50;99.90
39067;DHT22;24821;51.988;6.020;2024-01-25T11:44:43;8.60;99.90
39067;DHT22;24821;51.988;6.020;2024-01-25T11:47:09;8.60;99.90
39067;DHT22;24821;51.988;6.020;2024-01-25T11:49:34;8.70;99.90
39067;DHT22;24821;51.988;6.020;2024-01-25T11:52:00;8.70;99.90
39067;DHT22;24821;51.988;6.020;2024-01-25T11:54:27;8.70;99.90
39067;DHT22;24821;51.988;6.020;2024-01-25T11:56:53;8.80;99.90
39067;DHT22;24821;51.988;6.020;2024-01-25T11:59:18;8.90;99.90
39067;DHT22;24821;51.988;6.020;2024-01-25T12:01:44;9.00;99.90
39067;DHT22;24821;51.988;6.020;2024-01-25T12:04:10;9.00;99.90
39067;DHT22;24821;51.988;6.020;2024-01-25T12:06:35;9.00;99.90
39067;DHT22;24821;51.988;6.020;2024-01-25T12:09:10;9.00;99.90
39067;DHT22;24821;51.988;6.020;2024-01-25T12:11:35;9.00;99.90
39067;DHT22;24821;51.988;6.020;2024-01-25T12:14:01;9.00;99.90
39067;DHT22;24821;51.988;6.020;2024-01-25T12:16:26;9.00;99.90
39067;DHT22;24821;51.988;6.020;2024-01-25T12:18:53;9.10;99.90
39067;DHT22;24821;51.988;6.020;2024-01-25T12:21:19;9.10;99.90
39067;DHT22;24821;51.988;6.020;2024-01-25T12:23:44;9.10;99.90
39067;DHT22;24821;51.988;6.020;2024-01-25T12:26:10;9.10;99.90
39067;DHT22;24821;51.988;6.020;2024-01-25T12:28:36;9.20;99.90
39067;DHT22;24821;51.988;6.020;2024-01-25T12:31:03;9.20;99.90
39067;DHT22;24821;51.988;6.020;2024-01-25T12:33:28;9.20;99.90
39067;DHT22;24821;51.988;6.020;2024-01-25T12:35:54;9.20;99.90
39067;DHT22;24821;51.988;6.020;2024-01-25T12:38:20;9.20;99.90
39067;DHT22;24821;51.988;6.020;2024-01-25T12:40:46;9.10;99.90
39067;DHT22;24821;51.988;6.020;2024-01-25T12:43:12;9.10;99.90
39067;DHT22;24821;51.988;6.020;2024-01-25T12:45:37;9.20;99.90
39067;DHT22;24821;51.988;6.020;2024-01-25T12:48:03;9.20;99.90
39067;DHT22;24821;51.988;6.020;2024-01-25T12:50:28;9.20;99.90
39067;DHT22;24821;51.988;6.020;2024-01-25T12:52:54;9.10;99.90
39067;DHT22;24821;51.988;6.020;2024-01-25T12:55:19;9.10;99.90
39067;DHT22;24821;51.988;6.020;2024-01-25T12:57:45;9.10;99.90
39067;DHT22;24821;51.988;6.020;2024-01-25T13:00:10;9.10;99.90
39067;DHT22;24821;51.988;6.020;2024-01-25T13:02:36;9.10;99.90
39067;DHT22;24821;51.988;6.020;2024-01-25T13:05:01;9.10;99.90
39067;DHT22;24821;51.988;6.020;2024-01-25T13:07:27;9.20;99.90
39067;DHT22;24821;51.988;6.020;2024-01-25T13:09:52;9.30;99.90
39067;DHT22;24821;51.988;6.020;2024-01-25T13:12:18;9.30;99.90
39067;DHT22;24821;51.988;6.020;2024-01-25T13:14:44;9.40;99.90
39067;DHT22;24821;51.988;6.020;2024-01-25T13:17:09;9.40;99.90
39067;DHT22;24821;51.988;6.020;2024-01-25T13:19:35;9.40;99.90
39067;DHT22;24821;51.988;6.020;2024-01-25T13:22:00;9.50;99.90
39067;DHT22;24821;51.988;6.020;2024-01-25T13:24:26;9.50;99.90
39067;DHT22;24821;51.988;6.020;2024-01-25T13:26:51;9.60;99.90
39067;DHT22;24821;51.988;6.020;2024-01-25T13:29:17;9.60;99.90
39067;DHT22;24821;51.988;6.020;2024-01-25T13:31:42;9.60;99.90
39067;DHT22;24821;51.988;6.020;2024-01-25T13:34:08;9.60;99.90
39067;DHT22;24821;51.988;6.020;2024-01-25T13:36:33;9.60;99.90
39067;DHT22;24821;51.988;6.020;2024-01-25T13:38:59;9.50;99.90
39067;DHT22;24821;51.988;6.020;2024-01-25T13:41:24;9.50;99.90
39067;DHT22;24821;51.988;6.020;2024-01-25T13:43:50;9.50;99.90
39067;DHT22;24821;51.988;6.020;2024-01-25T13:46:15;9.50;99.90
39067;DHT22;24821;51.988;6.020;2024-01-25T13:48:41;9.50;99.90
39067;DHT22;24821;51.988;6.020;2024-01-25T13:51:06;9.40;99.90
39067;DHT22;24821;51.988;6.020;2024-01-25T13:53:32;9.40;99.90
39067;DHT22;24821;51.988;6.020;2024-01-25T13:55:57;9.40;99.90
39067;DHT22;24821;51.988;6.020;2024-01-25T13:58:22;9.30;99.90
39067;DHT22;24821;51.988;6.020;2024-01-25T14:00:48;9.30;99.90
39067;DHT22;24821;51.988;6.020;2024-01-25T14:03:14;9.30;99.90
39067;DHT22;24821;51.988;6.020;2024-01-25T14:05:40;9.30;99.90
39067;DHT22;24821;51.988;6.020;2024-01-25T14:08:05;9.20;99.90
39067;DHT22;24821;51.988;6.020;2024-01-25T14:10:31;9.30;99.90
39067;DHT22;24821;51.988;6.020;2024-01-25T14:12:59;9.30;99.90
39067;DHT22;24821;51.988;6.020;2024-01-25T14:15:25;9.20;99.90
39067;DHT22;24821;51.988;6.020;2024-01-25T14:17:50;9.20;99.90
39067;DHT22;24821;51.988;6.020;2024-01-25T14:20:16;9.10;99.90
39067;DHT22;24821;51.988;6.020;2024-01-25T14:22:43;9.10;99.90
39067;DHT22;24821;51.988;6.020;2024-01-25T14:25:08;9.10;99.90
39067;DHT22;24821;51.988;6.020;2024-01-25T14:27:34;9.10;99.90
39067;DHT22;24821;51.988;6.020;2024-01-25T14:30:00;9.00;99.90
39067;DHT22;24821;51.988;6.020;2024-01-25T14:32:25;9.00;99.90
39067;DHT22;24821;51.988;6.020;2024-01-25T14:34:51;8.90;99.90
39067;DHT22;24821;51.988;6.020;2024-01-25T14:37:17;8.90;99.90
39067;DHT22;24821;51.988;6.020;2024-01-25T14:39:42;8.80;99.90
39067;DHT22;24821;51.988;6.020;2024-01-25T14:42:10;8.80;99.90
39067;DHT22;24821;51.988;6.020;2024-01-25T14:44:37;8.80;99.90
39067;DHT22;24821;51.988;6.020;2024-01-25T14:47:02;8.70;99.90
39067;DHT22;24821;51.988;6.020;2024-01-25T14:49:28;8.70;99.90
39067;DHT22;24821;51.988;6.020;2024-01-25T14:51:53;8.60;99.90
39067;DHT22;24821;51.988;6.020;2024-01-25T14:54:18;8.70;99.90
39067;DHT22;24821;51.988;6.020;2024-01-25T14:56:44;8.60;99.90
39067;DHT22;24821;51.988;6.020;2024-01-25T14:59:10;8.60;99.90
39067;DHT22;24821;51.988;6.020;2024-01-25T15:01:35;8.60;99.90
39067;DHT22;24821;51.988;6.020;2024-01-25T15:04:01;8.60;99.90
39067;DHT22;24821;51.988;6.020;2024-01-25T15:06:26;8.60;99.90
39067;DHT22;24821;51.988;6.020;2024-01-25T15:08:54;8.70;99.90
39067;DHT22;24821;51.988;6.020;2024-01-25T15:11:20;8.70;99.90
39067;DHT22;24821;51.988;6.020;2024-01-25T15:13:45;8.70;99.90
39067;DHT22;24821;51.988;6.020;2024-01-25T15:16:10;8.70;99.90
39067;DHT22;24821;51.988;6.020;2024-01-25T15:18:36;8.60;99.90
39067;DHT22;24821;51.988;6.020;2024-01-25T15:21:01;8.70;99.90
39067;DHT22;24821;51.988;6.020;2024-01-25T15:23:27;8.70;99.90
39067;DHT22;24821;51.988;6.020;2024-01-25T15:25:54;8.70;99.90
39067;DHT22;24821;51.988;6.020;2024-01-25T15:28:20;8.70;99.90
39067;DHT22;24821;51.988;6.020;2024-01-25T15:30:45;8.70;99.90
39067;DHT22;24821;51.988;6.020;2024-01-25T15:33:11;8.70;99.90
39067;DHT22;24821;51.988;6.020;2024-01-25T15:35:36;8.70;99.90